sensor_id;sensor_type;location;lat;lon;timestamp;P1;durP1;ratioP1;P2;durP2;ratioP2
27740;SDS011;15134;48.768;9.184;2024-02-26T00:00:36;801.28;;;690.60;;
27740;SDS011;15134;48.768;9.184;2024-02-26T00:03:02;800.40;;;687.55;;
27740;SDS011;15134;48.768;9.184;2024-02-26T00:05:28;799.83;;;690.00;;
27740;SDS011;15134;48.768;9.184;2024-02-26T00:07:54;799.03;;;689.27;;
27740;SDS011;15134;48.768;9.184;2024-02-26T00:10:19;800.90;;;688.17;;
27740;SDS011;15134;48.768;9.184;2024-02-26T00:12:45;801.33;;;691.90;;
27740;SDS011;15134;48.768;9.184;2024-02-26T00:15:11;801.40;;;694.53;;
27740;SDS011;15134;48.768;9.184;2024-02-26T00:17:36;799.33;;;689.47;;
27740;SDS011;15134;48.768;9.184;2024-02-26T00:20:03;798.97;;;686.35;;
27740;SDS011;15134;48.768;9.184;2024-02-26T00:22:33;799.55;;;689.50;;
27740;SDS011;15134;48.768;9.184;2024-02-26T00:24:59;803.05;;;692.55;;
27740;SDS011;15134;48.768;9.184;2024-02-26T00:27:25;802.22;;;693.25;;
27740;SDS011;15134;48.768;9.184;2024-02-26T00:29:50;807.40;;;706.10;;
27740;SDS011;15134;48.768;9.184;2024-02-26T00:32:16;805.23;;;700.70;;
27740;SDS011;15134;48.768;9.184;2024-02-26T00:34:42;801.35;;;690.10;;
27740;SDS011;15134;48.768;9.184;2024-02-26T00:37:07;804.25;;;698.47;;
27740;SDS011;15134;48.768;9.184;2024-02-26T00:39:33;803.72;;;699.08;;
27740;SDS011;15134;48.768;9.184;2024-02-26T00:41:59;802.33;;;692.90;;
27740;SDS011;15134;48.768;9.184;2024-02-26T00:44:25;802.53;;;695.17;;
27740;SDS011;15134;48.768;9.184;2024-02-26T00:46:50;804.75;;;702.58;;
27740;SDS011;15134;48.768;9.184;2024-02-26T00:49:16;807.03;;;700.40;;
27740;SDS011;15134;48.768;9.184;2024-02-26T00:51:42;804.00;;;694.20;;
27740;SDS011;15134;48.768;9.184;2024-02-26T00:54:08;803.77;;;697.03;;
27740;SDS011;15134;48.768;9.184;2024-02-26T00:56:33;804.57;;;697.23;;
27740;SDS011;15134;48.768;9.184;2024-02-26T00:58:59;801.45;;;692.97;;
27740;SDS011;15134;48.768;9.184;2024-02-26T01:01:25;804.72;;;698.85;;
27740;SDS011;15134;48.768;9.184;2024-02-26T01:03:50;801.72;;;694.00;;
27740;SDS011;15134;48.768;9.184;2024-02-26T01:06:16;804.67;;;696.13;;
27740;SDS011;15134;48.768;9.184;2024-02-26T01:08:42;807.37;;;700.13;;
27740;SDS011;15134;48.768;9.184;2024-02-26T01:11:08;801.17;;;691.97;;
27740;SDS011;15134;48.768;9.184;2024-02-26T01:13:33;801.05;;;688.72;;
27740;SDS011;15134;48.768;9.184;2024-02-26T01:15:59;800.60;;;695.53;;
27740;SDS011;15134;48.768;9.184;2024-02-26T01:18:26;798.45;;;684.50;;
27740;SDS011;15134;48.768;9.184;2024-02-26T01:20:52;799.50;;;682.53;;
27740;SDS011;15134;48.768;9.184;2024-02-26T01:23:19;800.60;;;686.40;;
27740;SDS011;15134;48.768;9.184;2024-02-26T01:25:45;800.35;;;683.78;;
27740;SDS011;15134;48.768;9.184;2024-02-26T01:28:11;798.75;;;680.88;;
27740;SDS011;15134;48.768;9.184;2024-02-26T01:30:37;799.10;;;679.72;;
27740;SDS011;15134;48.768;9.184;2024-02-26T01:33:03;799.60;;;686.38;;
27740;SDS011;15134;48.768;9.184;2024-02-26T01:35:29;797.57;;;682.80;;
27740;SDS011;15134;48.768;9.184;2024-02-26T01:37:55;798.05;;;681.78;;
27740;SDS011;15134;48.768;9.184;2024-02-26T01:40:21;802.53;;;687.53;;
27740;SDS011;15134;48.768;9.184;2024-02-26T01:42:47;801.55;;;692.72;;
27740;SDS011;15134;48.768;9.184;2024-02-26T01:45:14;801.58;;;685.70;;
27740;SDS011;15134;48.768;9.184;2024-02-26T01:47:47;798.17;;;682.70;;
27740;SDS011;15134;48.768;9.184;2024-02-26T01:50:15;798.05;;;682.28;;
27740;SDS011;15134;48.768;9.184;2024-02-26T01:52:41;799.78;;;687.70;;
27740;SDS011;15134;48.768;9.184;2024-02-26T01:55:07;800.83;;;689.92;;
27740;SDS011;15134;48.768;9.184;2024-02-26T01:57:33;801.00;;;687.90;;
27740;SDS011;15134;48.768;9.184;2024-02-26T01:59:59;801.83;;;692.28;;
27740;SDS011;15134;48.768;9.184;2024-02-26T02:02:25;802.37;;;694.43;;
27740;SDS011;15134;48.768;9.184;2024-02-26T02:04:51;803.53;;;692.83;;
27740;SDS011;15134;48.768;9.184;2024-02-26T02:07:17;799.72;;;685.38;;
27740;SDS011;15134;48.768;9.184;2024-02-26T02:09:45;802.20;;;692.97;;
27740;SDS011;15134;48.768;9.184;2024-02-26T02:12:11;806.58;;;698.20;;
27740;SDS011;15134;48.768;9.184;2024-02-26T02:14:36;806.37;;;700.37;;
27740;SDS011;15134;48.768;9.184;2024-02-26T02:17:02;801.23;;;694.20;;
27740;SDS011;15134;48.768;9.184;2024-02-26T02:19:28;803.70;;;697.47;;
27740;SDS011;15134;48.768;9.184;2024-02-26T02:21:54;801.55;;;691.92;;
27740;SDS011;15134;48.768;9.184;2024-02-26T02:24:19;802.17;;;689.47;;
27740;SDS011;15134;48.768;9.184;2024-02-26T02:26:45;802.03;;;689.03;;
27740;SDS011;15134;48.768;9.184;2024-02-26T02:29:11;802.72;;;693.53;;
27740;SDS011;15134;48.768;9.184;2024-02-26T02:31:37;797.53;;;682.20;;
27740;SDS011;15134;48.768;9.184;2024-02-26T02:34:03;798.67;;;685.83;;
27740;SDS011;15134;48.768;9.184;2024-02-26T02:36:29;805.50;;;695.45;;
27740;SDS011;15134;48.768;9.184;2024-02-26T02:38:55;798.22;;;681.38;;
27740;SDS011;15134;48.768;9.184;2024-02-26T02:41:21;803.20;;;694.93;;
27740;SDS011;15134;48.768;9.184;2024-02-26T02:43:47;799.88;;;685.65;;
27740;SDS011;15134;48.768;9.184;2024-02-26T02:46:13;798.35;;;684.13;;
27740;SDS011;15134;48.768;9.184;2024-02-26T02:48:38;799.40;;;684.20;;
27740;SDS011;15134;48.768;9.184;2024-02-26T02:51:06;801.13;;;687.80;;
27740;SDS011;15134;48.768;9.184;2024-02-26T02:53:32;800.88;;;690.55;;
27740;SDS011;15134;48.768;9.184;2024-02-26T02:55:57;800.78;;;688.25;;
27740;SDS011;15134;48.768;9.184;2024-02-26T02:58:23;804.42;;;696.33;;
27740;SDS011;15134;48.768;9.184;2024-02-26T03:00:49;801.20;;;689.60;;
27740;SDS011;15134;48.768;9.184;2024-02-26T03:03:14;803.27;;;696.03;;
27740;SDS011;15134;48.768;9.184;2024-02-26T03:05:40;802.20;;;694.50;;
27740;SDS011;15134;48.768;9.184;2024-02-26T03:08:06;801.30;;;689.67;;
27740;SDS011;15134;48.768;9.184;2024-02-26T03:10:32;796.42;;;680.17;;
27740;SDS011;15134;48.768;9.184;2024-02-26T03:12:58;803.25;;;688.80;;
27740;SDS011;15134;48.768;9.184;2024-02-26T03:15:24;798.10;;;681.20;;
27740;SDS011;15134;48.768;9.184;2024-02-26T03:17:50;801.58;;;692.15;;
27740;SDS011;15134;48.768;9.184;2024-02-26T03:20:16;801.88;;;693.03;;
27740;SDS011;15134;48.768;9.184;2024-02-26T03:22:44;800.42;;;690.97;;
27740;SDS011;15134;48.768;9.184;2024-02-26T03:25:10;802.60;;;695.80;;
27740;SDS011;15134;48.768;9.184;2024-02-26T03:27:36;804.38;;;696.15;;
27740;SDS011;15134;48.768;9.184;2024-02-26T03:30:02;798.25;;;686.85;;
27740;SDS011;15134;48.768;9.184;2024-02-26T03:32:28;799.67;;;683.53;;
27740;SDS011;15134;48.768;9.184;2024-02-26T03:34:54;802.20;;;694.27;;
27740;SDS011;15134;48.768;9.184;2024-02-26T03:37:21;800.23;;;689.57;;
27740;SDS011;15134;48.768;9.184;2024-02-26T03:39:47;803.55;;;695.75;;
27740;SDS011;15134;48.768;9.184;2024-02-26T03:42:12;799.40;;;684.58;;
27740;SDS011;15134;48.768;9.184;2024-02-26T03:44:38;798.23;;;678.03;;
27740;SDS011;15134;48.768;9.184;2024-02-26T03:47:04;797.88;;;682.78;;
27740;SDS011;15134;48.768;9.184;2024-02-26T03:49:29;800.63;;;684.83;;
27740;SDS011;15134;48.768;9.184;2024-02-26T03:51:55;792.45;;;665.35;;
27740;SDS011;15134;48.768;9.184;2024-02-26T03:54:21;793.58;;;667.28;;
27740;SDS011;15134;48.768;9.184;2024-02-26T03:56:47;791.42;;;665.53;;
27740;SDS011;15134;48.768;9.184;2024-02-26T03:59:13;795.40;;;668.05;;
27740;SDS011;15134;48.768;9.184;2024-02-26T04:01:38;794.37;;;667.77;;
27740;SDS011;15134;48.768;9.184;2024-02-26T04:04:04;797.95;;;673.92;;
27740;SDS011;15134;48.768;9.184;2024-02-26T04:06:30;793.75;;;668.88;;
27740;SDS011;15134;48.768;9.184;2024-02-26T04:08:55;794.42;;;667.75;;
27740;SDS011;15134;48.768;9.184;2024-02-26T04:11:21;793.53;;;667.77;;
27740;SDS011;15134;48.768;9.184;2024-02-26T04:13:47;792.67;;;665.27;;
27740;SDS011;15134;48.768;9.184;2024-02-26T04:16:16;794.03;;;669.63;;
27740;SDS011;15134;48.768;9.184;2024-02-26T04:18:42;793.67;;;671.80;;
27740;SDS011;15134;48.768;9.184;2024-02-26T04:21:07;796.70;;;672.13;;
27740;SDS011;15134;48.768;9.184;2024-02-26T04:23:33;797.97;;;681.53;;
27740;SDS011;15134;48.768;9.184;2024-02-26T04:25:59;797.70;;;681.30;;
27740;SDS011;15134;48.768;9.184;2024-02-26T04:28:25;797.33;;;675.67;;
27740;SDS011;15134;48.768;9.184;2024-02-26T04:30:54;797.72;;;681.67;;
27740;SDS011;15134;48.768;9.184;2024-02-26T04:33:20;796.13;;;677.80;;
27740;SDS011;15134;48.768;9.184;2024-02-26T04:35:46;799.42;;;685.50;;
27740;SDS011;15134;48.768;9.184;2024-02-26T04:38:11;796.87;;;679.97;;
27740;SDS011;15134;48.768;9.184;2024-02-26T04:40:37;802.80;;;690.43;;
27740;SDS011;15134;48.768;9.184;2024-02-26T04:43:03;800.93;;;685.87;;
27740;SDS011;15134;48.768;9.184;2024-02-26T04:45:29;801.08;;;689.40;;
27740;SDS011;15134;48.768;9.184;2024-02-26T04:47:54;800.90;;;685.88;;
27740;SDS011;15134;48.768;9.184;2024-02-26T04:50:20;802.25;;;690.50;;
27740;SDS011;15134;48.768;9.184;2024-02-26T04:52:46;800.87;;;682.53;;
27740;SDS011;15134;48.768;9.184;2024-02-26T04:55:12;801.53;;;690.37;;
27740;SDS011;15134;48.768;9.184;2024-02-26T04:57:37;802.95;;;687.42;;
27740;SDS011;15134;48.768;9.184;2024-02-26T05:00:04;802.30;;;688.75;;
27740;SDS011;15134;48.768;9.184;2024-02-26T05:02:30;799.28;;;683.50;;
27740;SDS011;15134;48.768;9.184;2024-02-26T05:04:58;803.38;;;692.38;;
27740;SDS011;15134;48.768;9.184;2024-02-26T05:07:24;798.75;;;683.25;;
27740;SDS011;15134;48.768;9.184;2024-02-26T05:09:50;796.03;;;681.00;;
27740;SDS011;15134;48.768;9.184;2024-02-26T05:12:16;802.13;;;689.50;;
27740;SDS011;15134;48.768;9.184;2024-02-26T05:14:41;801.63;;;689.67;;
27740;SDS011;15134;48.768;9.184;2024-02-26T05:17:08;801.00;;;689.78;;
27740;SDS011;15134;48.768;9.184;2024-02-26T05:19:33;798.03;;;683.65;;
27740;SDS011;15134;48.768;9.184;2024-02-26T05:21:59;797.63;;;678.72;;
27740;SDS011;15134;48.768;9.184;2024-02-26T05:24:25;799.70;;;684.60;;
27740;SDS011;15134;48.768;9.184;2024-02-26T05:26:51;800.50;;;686.30;;
27740;SDS011;15134;48.768;9.184;2024-02-26T05:29:16;802.13;;;683.00;;
27740;SDS011;15134;48.768;9.184;2024-02-26T05:31:42;799.30;;;681.85;;
27740;SDS011;15134;48.768;9.184;2024-02-26T05:34:08;800.78;;;686.08;;
27740;SDS011;15134;48.768;9.184;2024-02-26T05:36:34;797.25;;;677.15;;
27740;SDS011;15134;48.768;9.184;2024-02-26T05:39:03;793.73;;;672.63;;
27740;SDS011;15134;48.768;9.184;2024-02-26T05:41:29;795.95;;;677.10;;
27740;SDS011;15134;48.768;9.184;2024-02-26T05:43:54;803.13;;;689.55;;
27740;SDS011;15134;48.768;9.184;2024-02-26T05:46:21;798.70;;;685.22;;
27740;SDS011;15134;48.768;9.184;2024-02-26T05:48:47;800.95;;;688.50;;
27740;SDS011;15134;48.768;9.184;2024-02-26T05:51:15;802.22;;;689.90;;
27740;SDS011;15134;48.768;9.184;2024-02-26T05:53:41;800.00;;;685.05;;
27740;SDS011;15134;48.768;9.184;2024-02-26T05:56:07;798.10;;;678.35;;
27740;SDS011;15134;48.768;9.184;2024-02-26T05:58:33;799.30;;;680.10;;
27740;SDS011;15134;48.768;9.184;2024-02-26T06:00:59;798.45;;;673.88;;
27740;SDS011;15134;48.768;9.184;2024-02-26T06:03:25;797.90;;;678.73;;
27740;SDS011;15134;48.768;9.184;2024-02-26T06:05:51;799.08;;;679.15;;
27740;SDS011;15134;48.768;9.184;2024-02-26T06:08:17;802.33;;;683.83;;
27740;SDS011;15134;48.768;9.184;2024-02-26T06:10:43;800.38;;;683.30;;
27740;SDS011;15134;48.768;9.184;2024-02-26T06:13:09;798.90;;;679.43;;
27740;SDS011;15134;48.768;9.184;2024-02-26T06:15:35;798.55;;;679.72;;
27740;SDS011;15134;48.768;9.184;2024-02-26T06:18:00;799.05;;;678.17;;
27740;SDS011;15134;48.768;9.184;2024-02-26T06:20:26;798.53;;;680.75;;
27740;SDS011;15134;48.768;9.184;2024-02-26T06:22:52;799.17;;;683.30;;
27740;SDS011;15134;48.768;9.184;2024-02-26T06:25:18;797.43;;;679.07;;
27740;SDS011;15134;48.768;9.184;2024-02-26T06:27:43;797.80;;;682.85;;
27740;SDS011;15134;48.768;9.184;2024-02-26T06:30:09;795.13;;;676.40;;
27740;SDS011;15134;48.768;9.184;2024-02-26T06:32:36;798.75;;;681.03;;
27740;SDS011;15134;48.768;9.184;2024-02-26T06:35:02;799.63;;;683.53;;
27740;SDS011;15134;48.768;9.184;2024-02-26T06:37:33;800.47;;;686.78;;
27740;SDS011;15134;48.768;9.184;2024-02-26T06:39:59;798.40;;;677.13;;
27740;SDS011;15134;48.768;9.184;2024-02-26T06:42:25;797.10;;;678.10;;
27740;SDS011;15134;48.768;9.184;2024-02-26T06:44:51;798.05;;;681.20;;
27740;SDS011;15134;48.768;9.184;2024-02-26T06:47:17;799.75;;;680.13;;
27740;SDS011;15134;48.768;9.184;2024-02-26T06:49:43;796.00;;;675.97;;
27740;SDS011;15134;48.768;9.184;2024-02-26T06:52:09;797.08;;;679.60;;
27740;SDS011;15134;48.768;9.184;2024-02-26T06:54:35;798.78;;;679.85;;
27740;SDS011;15134;48.768;9.184;2024-02-26T06:57:00;797.17;;;678.27;;
27740;SDS011;15134;48.768;9.184;2024-02-26T06:59:26;800.28;;;681.75;;
27740;SDS011;15134;48.768;9.184;2024-02-26T07:01:52;797.00;;;673.92;;
27740;SDS011;15134;48.768;9.184;2024-02-26T07:04:19;796.58;;;678.70;;
27740;SDS011;15134;48.768;9.184;2024-02-26T07:06:45;803.30;;;681.20;;
27740;SDS011;15134;48.768;9.184;2024-02-26T07:09:12;808.30;;;683.47;;
27740;SDS011;15134;48.768;9.184;2024-02-26T07:11:38;798.38;;;676.70;;
27740;SDS011;15134;48.768;9.184;2024-02-26T07:14:07;799.70;;;680.72;;
27740;SDS011;15134;48.768;9.184;2024-02-26T07:16:37;797.27;;;677.97;;
27740;SDS011;15134;48.768;9.184;2024-02-26T07:19:03;801.50;;;687.38;;
27740;SDS011;15134;48.768;9.184;2024-02-26T07:21:29;797.13;;;680.77;;
27740;SDS011;15134;48.768;9.184;2024-02-26T07:23:54;803.90;;;692.55;;
27740;SDS011;15134;48.768;9.184;2024-02-26T07:26:20;801.20;;;685.97;;
27740;SDS011;15134;48.768;9.184;2024-02-26T07:28:46;802.83;;;692.47;;
27740;SDS011;15134;48.768;9.184;2024-02-26T07:31:12;802.00;;;688.67;;
27740;SDS011;15134;48.768;9.184;2024-02-26T07:33:38;800.83;;;682.75;;
27740;SDS011;15134;48.768;9.184;2024-02-26T07:36:03;802.50;;;688.03;;
27740;SDS011;15134;48.768;9.184;2024-02-26T07:38:29;803.17;;;694.67;;
27740;SDS011;15134;48.768;9.184;2024-02-26T07:40:55;808.60;;;693.17;;
27740;SDS011;15134;48.768;9.184;2024-02-26T07:43:22;801.13;;;689.17;;
27740;SDS011;15134;48.768;9.184;2024-02-26T07:45:48;800.63;;;687.08;;
27740;SDS011;15134;48.768;9.184;2024-02-26T07:48:13;796.87;;;677.93;;
27740;SDS011;15134;48.768;9.184;2024-02-26T07:50:39;801.60;;;687.97;;
27740;SDS011;15134;48.768;9.184;2024-02-26T07:53:05;798.28;;;680.42;;
27740;SDS011;15134;48.768;9.184;2024-02-26T07:55:31;798.37;;;681.73;;
27740;SDS011;15134;48.768;9.184;2024-02-26T07:57:57;800.35;;;682.03;;
27740;SDS011;15134;48.768;9.184;2024-02-26T08:00:23;798.40;;;679.90;;
27740;SDS011;15134;48.768;9.184;2024-02-26T08:02:48;801.58;;;683.33;;
27740;SDS011;15134;48.768;9.184;2024-02-26T08:05:14;799.87;;;681.03;;
27740;SDS011;15134;48.768;9.184;2024-02-26T08:07:40;801.13;;;684.88;;
27740;SDS011;15134;48.768;9.184;2024-02-26T08:10:06;800.70;;;683.80;;
27740;SDS011;15134;48.768;9.184;2024-02-26T08:12:32;802.70;;;686.60;;
27740;SDS011;15134;48.768;9.184;2024-02-26T08:14:58;802.90;;;689.58;;
27740;SDS011;15134;48.768;9.184;2024-02-26T08:17:25;804.00;;;693.50;;
27740;SDS011;15134;48.768;9.184;2024-02-26T08:19:52;801.60;;;691.13;;
27740;SDS011;15134;48.768;9.184;2024-02-26T08:22:18;802.72;;;689.28;;
27740;SDS011;15134;48.768;9.184;2024-02-26T08:24:44;807.40;;;698.30;;
27740;SDS011;15134;48.768;9.184;2024-02-26T08:27:09;809.25;;;700.15;;
27740;SDS011;15134;48.768;9.184;2024-02-26T08:29:35;805.95;;;694.58;;
27740;SDS011;15134;48.768;9.184;2024-02-26T08:32:01;807.70;;;698.40;;
27740;SDS011;15134;48.768;9.184;2024-02-26T08:34:28;804.83;;;694.08;;
27740;SDS011;15134;48.768;9.184;2024-02-26T08:36:53;802.77;;;688.63;;
27740;SDS011;15134;48.768;9.184;2024-02-26T08:39:19;805.33;;;696.08;;
27740;SDS011;15134;48.768;9.184;2024-02-26T08:41:45;811.50;;;707.92;;
27740;SDS011;15134;48.768;9.184;2024-02-26T08:44:11;806.65;;;701.88;;
27740;SDS011;15134;48.768;9.184;2024-02-26T08:46:37;808.05;;;703.00;;
27740;SDS011;15134;48.768;9.184;2024-02-26T08:49:03;811.78;;;703.47;;
27740;SDS011;15134;48.768;9.184;2024-02-26T08:51:29;808.10;;;701.58;;
27740;SDS011;15134;48.768;9.184;2024-02-26T08:53:55;810.50;;;704.93;;
27740;SDS011;15134;48.768;9.184;2024-02-26T08:56:21;811.97;;;712.22;;
27740;SDS011;15134;48.768;9.184;2024-02-26T08:58:47;812.75;;;713.35;;
27740;SDS011;15134;48.768;9.184;2024-02-26T09:01:18;814.35;;;718.22;;
27740;SDS011;15134;48.768;9.184;2024-02-26T09:03:44;812.17;;;717.33;;
27740;SDS011;15134;48.768;9.184;2024-02-26T09:06:10;818.80;;;727.10;;
27740;SDS011;15134;48.768;9.184;2024-02-26T09:08:40;815.45;;;719.72;;
27740;SDS011;15134;48.768;9.184;2024-02-26T09:11:06;819.77;;;725.47;;
27740;SDS011;15134;48.768;9.184;2024-02-26T09:13:32;818.83;;;726.00;;
27740;SDS011;15134;48.768;9.184;2024-02-26T09:15:58;818.40;;;727.55;;
27740;SDS011;15134;48.768;9.184;2024-02-26T09:18:24;820.38;;;729.50;;
27740;SDS011;15134;48.768;9.184;2024-02-26T09:20:50;822.78;;;731.78;;
27740;SDS011;15134;48.768;9.184;2024-02-26T09:23:16;818.08;;;727.33;;
27740;SDS011;15134;48.768;9.184;2024-02-26T09:25:42;817.03;;;725.13;;
27740;SDS011;15134;48.768;9.184;2024-02-26T09:28:07;824.53;;;733.50;;
27740;SDS011;15134;48.768;9.184;2024-02-26T09:30:33;825.83;;;734.58;;
27740;SDS011;15134;48.768;9.184;2024-02-26T09:32:59;816.08;;;725.13;;
27740;SDS011;15134;48.768;9.184;2024-02-26T09:35:25;822.80;;;731.83;;
27740;SDS011;15134;48.768;9.184;2024-02-26T09:37:52;820.38;;;729.65;;
27740;SDS011;15134;48.768;9.184;2024-02-26T09:40:18;829.72;;;738.45;;
27740;SDS011;15134;48.768;9.184;2024-02-26T09:42:45;815.80;;;723.25;;
27740;SDS011;15134;48.768;9.184;2024-02-26T09:45:21;821.65;;;729.90;;
27740;SDS011;15134;48.768;9.184;2024-02-26T09:47:48;826.10;;;734.90;;
27740;SDS011;15134;48.768;9.184;2024-02-26T09:50:17;823.22;;;732.03;;
27740;SDS011;15134;48.768;9.184;2024-02-26T09:52:48;820.25;;;729.45;;
27740;SDS011;15134;48.768;9.184;2024-02-26T09:55:14;813.30;;;714.67;;
27740;SDS011;15134;48.768;9.184;2024-02-26T09:57:47;813.65;;;714.30;;
27740;SDS011;15134;48.768;9.184;2024-02-26T10:00:20;813.47;;;716.42;;
27740;SDS011;15134;48.768;9.184;2024-02-26T10:02:47;813.70;;;715.35;;
27740;SDS011;15134;48.768;9.184;2024-02-26T10:05:17;814.20;;;709.92;;
27740;SDS011;15134;48.768;9.184;2024-02-26T10:07:46;810.92;;;709.83;;
27740;SDS011;15134;48.768;9.184;2024-02-26T10:10:13;811.93;;;716.53;;
27740;SDS011;15134;48.768;9.184;2024-02-26T10:12:39;820.95;;;730.10;;
27740;SDS011;15134;48.768;9.184;2024-02-26T10:15:08;821.88;;;730.65;;
27740;SDS011;15134;48.768;9.184;2024-02-26T10:17:34;834.00;;;741.57;;
27740;SDS011;15134;48.768;9.184;2024-02-26T10:22:57;844.75;;;752.63;;
27740;SDS011;15134;48.768;9.184;2024-02-26T10:25:23;853.90;;;761.70;;
27740;SDS011;15134;48.768;9.184;2024-02-26T10:27:49;861.47;;;768.95;;
27740;SDS011;15134;48.768;9.184;2024-02-26T10:30:16;861.65;;;769.08;;
27740;SDS011;15134;48.768;9.184;2024-02-26T10:32:46;861.55;;;769.08;;
27740;SDS011;15134;48.768;9.184;2024-02-26T10:35:13;855.47;;;763.25;;
27740;SDS011;15134;48.768;9.184;2024-02-26T10:37:40;857.42;;;765.13;;
27740;SDS011;15134;48.768;9.184;2024-02-26T10:40:16;858.92;;;766.45;;
27740;SDS011;15134;48.768;9.184;2024-02-26T10:42:42;869.75;;;776.95;;
27740;SDS011;15134;48.768;9.184;2024-02-26T10:45:15;866.85;;;774.03;;
27740;SDS011;15134;48.768;9.184;2024-02-26T10:47:41;870.63;;;777.70;;
27740;SDS011;15134;48.768;9.184;2024-02-26T10:50:10;866.78;;;774.08;;
27740;SDS011;15134;48.768;9.184;2024-02-26T10:52:39;862.38;;;769.88;;
27740;SDS011;15134;48.768;9.184;2024-02-26T10:55:14;861.65;;;769.38;;
27740;SDS011;15134;48.768;9.184;2024-02-26T10:57:44;864.58;;;771.88;;
27740;SDS011;15134;48.768;9.184;2024-02-26T11:00:14;864.65;;;772.08;;
27740;SDS011;15134;48.768;9.184;2024-02-26T11:02:41;869.97;;;777.10;;
27740;SDS011;15134;48.768;9.184;2024-02-26T11:05:09;869.45;;;776.55;;
27740;SDS011;15134;48.768;9.184;2024-02-26T11:07:37;865.10;;;772.50;;
27740;SDS011;15134;48.768;9.184;2024-02-26T11:10:04;866.80;;;774.20;;
27740;SDS011;15134;48.768;9.184;2024-02-26T11:12:32;871.50;;;778.50;;
27740;SDS011;15134;48.768;9.184;2024-02-26T11:15:01;867.55;;;774.92;;
27740;SDS011;15134;48.768;9.184;2024-02-26T11:17:27;873.67;;;780.72;;
27740;SDS011;15134;48.768;9.184;2024-02-26T11:19:56;887.80;;;794.08;;
27740;SDS011;15134;48.768;9.184;2024-02-26T11:22:26;881.33;;;787.83;;
27740;SDS011;15134;48.768;9.184;2024-02-26T11:24:56;884.33;;;790.60;;
27740;SDS011;15134;48.768;9.184;2024-02-26T11:27:26;882.23;;;789.00;;
27740;SDS011;15134;48.768;9.184;2024-02-26T11:29:57;866.95;;;773.97;;
27740;SDS011;15134;48.768;9.184;2024-02-26T11:32:26;884.22;;;790.67;;
27740;SDS011;15134;48.768;9.184;2024-02-26T11:34:55;883.33;;;789.75;;
27740;SDS011;15134;48.768;9.184;2024-02-26T11:37:23;883.38;;;789.75;;
27740;SDS011;15134;48.768;9.184;2024-02-26T11:39:49;893.40;;;799.47;;
27740;SDS011;15134;48.768;9.184;2024-02-26T11:42:17;904.95;;;810.20;;
27740;SDS011;15134;48.768;9.184;2024-02-26T11:44:43;898.80;;;804.37;;
27740;SDS011;15134;48.768;9.184;2024-02-26T11:47:28;907.00;;;812.30;;
27740;SDS011;15134;48.768;9.184;2024-02-26T11:49:53;898.00;;;803.80;;
27740;SDS011;15134;48.768;9.184;2024-02-26T11:52:19;902.10;;;807.50;;
27740;SDS011;15134;48.768;9.184;2024-02-26T11:54:52;899.90;;;805.37;;
27740;SDS011;15134;48.768;9.184;2024-02-26T11:59:47;897.65;;;803.30;;
27740;SDS011;15134;48.768;9.184;2024-02-26T12:02:37;894.25;;;800.10;;
27740;SDS011;15134;48.768;9.184;2024-02-26T12:05:23;897.83;;;803.43;;
27740;SDS011;15134;48.768;9.184;2024-02-26T12:07:52;897.78;;;803.58;;
27740;SDS011;15134;48.768;9.184;2024-02-26T12:13:07;893.92;;;799.75;;
27740;SDS011;15134;48.768;9.184;2024-02-26T12:15:38;898.53;;;804.25;;
27740;SDS011;15134;48.768;9.184;2024-02-26T12:18:07;899.78;;;805.45;;
27740;SDS011;15134;48.768;9.184;2024-02-26T12:20:35;907.27;;;812.37;;
27740;SDS011;15134;48.768;9.184;2024-02-26T12:23:02;893.97;;;799.88;;
27740;SDS011;15134;48.768;9.184;2024-02-26T12:25:32;898.75;;;804.35;;
27740;SDS011;15134;48.768;9.184;2024-02-26T12:27:58;898.65;;;804.25;;
27740;SDS011;15134;48.768;9.184;2024-02-26T12:30:25;899.67;;;805.08;;
27740;SDS011;15134;48.768;9.184;2024-02-26T12:32:52;897.70;;;803.28;;
27740;SDS011;15134;48.768;9.184;2024-02-26T12:35:22;896.05;;;801.92;;
27740;SDS011;15134;48.768;9.184;2024-02-26T12:37:49;898.65;;;804.45;;
27740;SDS011;15134;48.768;9.184;2024-02-26T12:40:16;894.55;;;800.35;;
27740;SDS011;15134;48.768;9.184;2024-02-26T12:42:42;901.80;;;807.30;;
27740;SDS011;15134;48.768;9.184;2024-02-26T12:45:10;897.42;;;803.03;;
27740;SDS011;15134;48.768;9.184;2024-02-26T12:47:40;891.25;;;797.30;;
27740;SDS011;15134;48.768;9.184;2024-02-26T12:50:10;766.05;;;664.28;;
27740;SDS011;15134;48.768;9.184;2024-02-26T12:52:39;877.53;;;784.47;;
27740;SDS011;15134;48.768;9.184;2024-02-26T12:55:08;892.92;;;799.28;;
27740;SDS011;15134;48.768;9.184;2024-02-26T12:57:37;894.08;;;800.28;;
27740;SDS011;15134;48.768;9.184;2024-02-26T13:00:06;896.95;;;803.03;;
27740;SDS011;15134;48.768;9.184;2024-02-26T13:02:35;895.90;;;802.03;;
27740;SDS011;15134;48.768;9.184;2024-02-26T13:05:03;896.33;;;802.33;;
27740;SDS011;15134;48.768;9.184;2024-02-26T13:07:30;891.88;;;798.17;;
27740;SDS011;15134;48.768;9.184;2024-02-26T13:09:56;887.97;;;794.50;;
27740;SDS011;15134;48.768;9.184;2024-02-26T13:12:22;883.17;;;789.80;;
27740;SDS011;15134;48.768;9.184;2024-02-26T13:14:58;880.60;;;787.33;;
27740;SDS011;15134;48.768;9.184;2024-02-26T13:17:31;871.80;;;779.00;;
27740;SDS011;15134;48.768;9.184;2024-02-26T13:19:57;861.97;;;769.47;;
27740;SDS011;15134;48.768;9.184;2024-02-26T13:22:22;873.20;;;780.30;;
27740;SDS011;15134;48.768;9.184;2024-02-26T13:24:55;877.47;;;784.45;;
27740;SDS011;15134;48.768;9.184;2024-02-26T13:27:22;880.40;;;787.10;;
27740;SDS011;15134;48.768;9.184;2024-02-26T13:29:48;870.75;;;777.92;;
27740;SDS011;15134;48.768;9.184;2024-02-26T13:32:26;866.47;;;773.63;;
27740;SDS011;15134;48.768;9.184;2024-02-26T13:35:06;871.92;;;778.83;;
27740;SDS011;15134;48.768;9.184;2024-02-26T13:37:33;860.97;;;768.60;;
27740;SDS011;15134;48.768;9.184;2024-02-26T13:39:59;868.53;;;775.65;;
27740;SDS011;15134;48.768;9.184;2024-02-26T13:42:29;877.42;;;784.25;;
27740;SDS011;15134;48.768;9.184;2024-02-26T13:44:55;867.40;;;774.60;;
27740;SDS011;15134;48.768;9.184;2024-02-26T13:47:21;857.83;;;765.63;;
27740;SDS011;15134;48.768;9.184;2024-02-26T13:49:46;869.70;;;776.80;;
27740;SDS011;15134;48.768;9.184;2024-02-26T13:52:12;873.87;;;780.90;;
27740;SDS011;15134;48.768;9.184;2024-02-26T13:54:39;879.55;;;786.25;;
27740;SDS011;15134;48.768;9.184;2024-02-26T13:57:05;883.80;;;790.47;;
27740;SDS011;15134;48.768;9.184;2024-02-26T13:59:32;889.42;;;795.88;;
27740;SDS011;15134;48.768;9.184;2024-02-26T14:01:57;875.88;;;782.90;;